createdAt,value
2023-08-06T00:00:14.493Z,2.60
2023-08-06T00:02:44.962Z,2.40
2023-08-06T00:05:15.382Z,3.07
2023-08-06T00:07:47.816Z,2.87
2023-08-06T00:10:19.024Z,3.17
2023-08-06T00:12:50.495Z,3.20
2023-08-06T00:15:21.024Z,3.30
2023-08-06T00:17:51.603Z,3.20
2023-08-06T00:20:22.444Z,3.33
2023-08-06T00:22:54.539Z,3.27
2023-08-06T00:25:25.029Z,3.07
2023-08-06T00:27:55.543Z,3.67
2023-08-06T00:30:26.078Z,3.43
2023-08-06T00:32:56.542Z,3.97
2023-08-06T00:35:26.994Z,3.87
2023-08-06T00:37:59.062Z,3.27
2023-08-06T00:40:30.930Z,3.70
2023-08-06T00:43:01.462Z,3.77
2023-08-06T00:45:33.313Z,3.50
2023-08-06T00:48:04.197Z,3.60
2023-08-06T00:50:34.992Z,3.50
2023-08-06T00:53:07.377Z,3.33
2023-08-06T00:55:38.423Z,4.07
2023-08-06T00:58:09.523Z,3.30
2023-08-06T01:00:40.354Z,3.73
2023-08-06T01:03:10.924Z,3.20
2023-08-06T01:05:41.613Z,3.60
2023-08-06T01:08:29.454Z,4.00
2023-08-06T01:11:18.308Z,3.73
2023-08-06T01:13:51.658Z,4.00
2023-08-06T01:16:24.300Z,3.87
2023-08-06T01:18:54.921Z,3.80
2023-08-06T01:21:27.036Z,3.60
2023-08-06T01:23:59.347Z,4.00
2023-08-06T01:26:39.537Z,4.07
2023-08-06T01:29:14.206Z,4.17
2023-08-06T01:31:47.618Z,4.23
2023-08-06T01:34:24.562Z,4.00
2023-08-06T01:36:56.859Z,3.83
2023-08-06T01:39:27.422Z,3.60
2023-08-06T01:41:57.864Z,4.17
2023-08-06T01:44:28.320Z,3.90
2023-08-06T01:46:58.798Z,4.30
2023-08-06T01:49:29.308Z,3.73
2023-08-06T01:52:02.746Z,3.87
2023-08-06T01:54:33.303Z,4.43
2023-08-06T01:57:03.755Z,3.90
2023-08-06T01:59:34.239Z,4.13
2023-08-06T02:02:05.118Z,4.60
2023-08-06T02:04:35.602Z,4.00
2023-08-06T02:07:08.387Z,4.77
2023-08-06T02:09:38.913Z,5.17
2023-08-06T02:12:10.652Z,6.37
2023-08-06T02:14:41.117Z,5.00
2023-08-06T02:17:11.560Z,4.40
2023-08-06T02:19:42.173Z,4.20
2023-08-06T02:22:14.291Z,6.50
2023-08-06T02:24:44.846Z,4.00
2023-08-06T02:27:15.275Z,4.53
2023-08-06T02:29:46.339Z,3.80
2023-08-06T02:32:16.986Z,4.47
2023-08-06T02:34:47.629Z,4.33
2023-08-06T02:37:19.680Z,4.63
2023-08-06T02:39:50.130Z,4.30
2023-08-06T02:42:20.648Z,4.43
2023-08-06T02:44:51.261Z,4.20
2023-08-06T02:47:21.811Z,4.83
2023-08-06T02:49:52.715Z,4.27
2023-08-06T02:52:24.901Z,8.23
2023-08-06T02:54:55.488Z,13.63
2023-08-06T02:57:25.964Z,4.80
2023-08-06T02:59:56.556Z,4.80
2023-08-06T03:02:27.134Z,3.83
2023-08-06T03:04:57.881Z,4.53
2023-08-06T03:07:30.535Z,4.30
2023-08-06T03:10:02.937Z,4.40
2023-08-06T03:12:33.460Z,4.20
2023-08-06T03:15:04.218Z,4.50
2023-08-06T03:17:34.819Z,4.47
2023-08-06T03:20:05.443Z,3.93
2023-08-06T03:22:37.644Z,5.13
2023-08-06T03:25:09.024Z,9.83
2023-08-06T03:27:39.469Z,4.97
2023-08-06T03:30:11.292Z,5.20
2023-08-06T03:32:42.099Z,3.53
2023-08-06T03:35:13.005Z,3.50
2023-08-06T03:37:45.088Z,3.50
2023-08-06T03:40:15.786Z,3.87
2023-08-06T03:42:46.326Z,4.20
2023-08-06T03:45:16.800Z,3.70
2023-08-06T03:47:47.370Z,3.93
2023-08-06T03:50:17.987Z,3.67
2023-08-06T03:52:50.040Z,3.70
2023-08-06T03:55:20.422Z,3.73
2023-08-06T03:57:51.408Z,3.90
2023-08-06T04:00:22.073Z,4.50
2023-08-06T04:02:52.812Z,3.60
2023-08-06T04:05:23.354Z,4.33
2023-08-06T04:07:55.496Z,3.83
2023-08-06T04:10:26.069Z,4.00
2023-08-06T04:12:56.571Z,4.43
2023-08-06T04:15:27.042Z,4.57
2023-08-06T04:17:58.823Z,3.70
2023-08-06T04:20:29.414Z,3.53
2023-08-06T04:23:01.528Z,3.90
2023-08-06T04:25:31.945Z,4.17
2023-08-06T04:28:02.491Z,3.87
2023-08-06T04:30:33.632Z,4.57
2023-08-06T04:33:04.283Z,3.53
2023-08-06T04:35:34.940Z,4.10
2023-08-06T04:38:07.065Z,3.53
2023-08-06T04:40:38.015Z,4.27
2023-08-06T04:43:08.558Z,3.40
2023-08-06T04:45:38.989Z,4.20
2023-08-06T04:48:09.661Z,3.97
2023-08-06T04:50:40.265Z,3.43
2023-08-06T04:53:12.297Z,3.40
2023-08-06T04:55:43.049Z,3.50
2023-08-06T04:58:14.353Z,3.80
2023-08-06T05:00:44.770Z,4.00
2023-08-06T05:03:15.223Z,3.63
2023-08-06T05:05:45.776Z,4.13
2023-08-06T05:08:20.449Z,4.00
2023-08-06T05:10:50.972Z,3.30
2023-08-06T05:13:21.506Z,3.40
2023-08-06T05:15:51.987Z,3.53
2023-08-06T05:18:22.413Z,3.13
2023-08-06T05:20:52.824Z,8.90
2023-08-06T05:23:24.869Z,7.47
2023-08-06T05:25:55.506Z,6.07
2023-08-06T05:28:26.028Z,3.37
2023-08-06T05:30:56.576Z,3.57
2023-08-06T05:33:27.167Z,3.60
2023-08-06T05:35:57.633Z,3.43
2023-08-06T05:38:29.833Z,3.03
2023-08-06T05:41:00.307Z,3.17
2023-08-06T05:43:30.875Z,3.27
2023-08-06T05:46:01.530Z,4.00
2023-08-06T05:48:31.957Z,3.10
2023-08-06T05:51:02.427Z,2.97
2023-08-06T05:53:34.504Z,3.53
2023-08-06T05:56:05.084Z,3.60
2023-08-06T05:58:35.477Z,3.80
2023-08-06T06:01:05.973Z,4.17
2023-08-06T06:03:36.480Z,3.47
2023-08-06T06:06:07.126Z,5.37
2023-08-06T06:08:39.202Z,3.10
2023-08-06T06:11:09.665Z,3.70
2023-08-06T06:13:40.221Z,3.73
2023-08-06T06:16:10.825Z,3.40
2023-08-06T06:18:41.281Z,3.50
2023-08-06T06:21:11.761Z,3.60
2023-08-06T06:23:43.950Z,7.67
2023-08-06T06:26:14.924Z,17.67
2023-08-06T06:28:45.444Z,5.07
2023-08-06T06:31:16.035Z,6.30
2023-08-06T06:33:46.697Z,6.67
2023-08-06T06:36:17.119Z,5.70
2023-08-06T06:38:49.957Z,5.50
2023-08-06T06:41:20.909Z,3.50
2023-08-06T06:43:51.322Z,3.10
2023-08-06T06:46:21.843Z,5.20
2023-08-06T06:48:52.370Z,4.07
2023-08-06T06:51:23.099Z,3.57
2023-08-06T06:53:55.128Z,3.43
2023-08-06T06:56:25.579Z,3.20
2023-08-06T06:58:56.128Z,3.03
2023-08-06T07:01:26.791Z,3.30
2023-08-06T07:03:57.284Z,3.77
2023-08-06T07:06:28.049Z,3.50
2023-08-06T07:09:00.530Z,3.30
2023-08-06T07:11:30.989Z,3.30
2023-08-06T07:14:02.005Z,3.57
2023-08-06T07:16:32.640Z,3.50
2023-08-06T07:19:03.099Z,4.13
2023-08-06T07:21:33.764Z,3.77
2023-08-06T07:24:05.905Z,3.80
2023-08-06T07:26:36.391Z,4.63
2023-08-06T07:29:06.920Z,4.43
2023-08-06T07:31:37.512Z,4.30
2023-08-06T07:34:10.651Z,4.27
2023-08-06T07:36:59.093Z,3.53
2023-08-06T07:39:42.895Z,4.10
2023-08-06T07:42:16.756Z,4.37
2023-08-06T07:44:53.576Z,7.00
2023-08-06T07:47:25.597Z,4.20
2023-08-06T07:49:59.446Z,3.43
2023-08-06T07:52:31.267Z,3.60
2023-08-06T07:55:07.002Z,3.70
2023-08-06T07:57:40.533Z,4.13
2023-08-06T08:00:13.654Z,3.73
2023-08-06T08:02:46.067Z,4.20
2023-08-06T08:05:19.037Z,4.23
2023-08-06T08:07:51.604Z,4.33
2023-08-06T08:10:24.782Z,3.70
2023-08-06T08:12:57.817Z,3.93
2023-08-06T08:15:30.831Z,3.97
2023-08-06T08:18:04.344Z,4.90
2023-08-06T08:20:38.114Z,3.87
2023-08-06T08:23:12.138Z,3.80
2023-08-06T08:25:46.242Z,4.70
2023-08-06T08:28:18.320Z,5.33
2023-08-06T08:30:50.712Z,3.60
2023-08-06T08:33:22.677Z,3.90
2023-08-06T08:35:56.255Z,4.50
2023-08-06T08:38:30.483Z,5.10
2023-08-06T08:41:05.278Z,4.00
2023-08-06T08:43:38.435Z,3.93
2023-08-06T08:46:13.998Z,4.63
2023-08-06T08:48:46.834Z,4.53
2023-08-06T08:51:21.944Z,4.03
2023-08-06T08:53:58.686Z,4.13
2023-08-06T08:56:34.732Z,4.20
2023-08-06T08:59:07.313Z,4.00
2023-08-06T09:01:39.239Z,3.73
2023-08-06T09:04:17.595Z,4.20
2023-08-06T09:06:56.813Z,3.75
2023-08-06T09:12:05.428Z,4.27
2023-08-06T09:14:36.131Z,4.10
2023-08-06T09:17:08.079Z,3.83
2023-08-06T09:19:50.285Z,3.80
2023-08-06T09:22:20.881Z,4.13
2023-08-06T09:24:51.459Z,3.50
2023-08-06T09:27:27.201Z,3.87
2023-08-06T09:29:59.440Z,4.07
2023-08-06T09:32:32.311Z,3.87
2023-08-06T09:35:07.401Z,3.83
2023-08-06T09:37:41.649Z,4.00
2023-08-06T09:40:30.381Z,4.27
2023-08-06T09:43:06.594Z,4.50
2023-08-06T09:45:40.939Z,3.77
2023-08-06T09:48:14.521Z,3.80
2023-08-06T09:50:49.931Z,4.20
2023-08-06T09:53:22.088Z,4.27
2023-08-06T09:55:56.679Z,4.10
2023-08-06T09:58:30.599Z,4.27
2023-08-06T10:01:04.351Z,4.77
2023-08-06T10:03:41.507Z,4.07
2023-08-06T10:06:14.492Z,4.67
2023-08-06T10:08:48.942Z,4.40
2023-08-06T10:11:21.736Z,4.47
2023-08-06T10:13:59.246Z,4.83
2023-08-06T10:16:33.263Z,4.20
2023-08-06T10:19:06.390Z,4.30
2023-08-06T10:21:38.058Z,4.57
2023-08-06T10:24:13.519Z,4.17
2023-08-06T10:26:53.890Z,4.20
2023-08-06T10:29:44.384Z,4.03
2023-08-06T10:32:17.841Z,4.50
2023-08-06T10:35:03.004Z,4.83
2023-08-06T10:37:49.621Z,4.60
2023-08-06T10:40:38.363Z,4.10
2023-08-06T10:43:12.896Z,4.45
2023-08-06T10:45:56.808Z,4.43
2023-08-06T10:51:39.822Z,4.67
2023-08-06T10:54:11.965Z,4.70
2023-08-06T10:56:46.920Z,4.17
2023-08-06T10:59:20.987Z,4.87
2023-08-06T11:01:56.032Z,6.17
2023-08-06T11:04:29.222Z,5.57
2023-08-06T11:07:01.870Z,6.73
2023-08-06T11:09:33.368Z,7.00
2023-08-06T11:12:05.207Z,6.57
2023-08-06T11:14:37.444Z,6.40
2023-08-06T11:17:11.059Z,7.50
2023-08-06T11:19:43.778Z,8.10
2023-08-06T11:22:21.359Z,7.70
2023-08-06T11:24:53.971Z,6.30
2023-08-06T11:27:27.184Z,6.93
2023-08-06T11:30:00.032Z,6.53
2023-08-06T11:32:33.647Z,6.60
2023-08-06T11:35:15.001Z,5.77
2023-08-06T11:37:50.794Z,4.60
2023-08-06T11:40:22.710Z,4.43
2023-08-06T11:42:59.077Z,4.70
2023-08-06T11:45:30.619Z,4.87
2023-08-06T11:48:04.365Z,4.47
2023-08-06T11:50:42.182Z,4.23
2023-08-06T11:53:18.686Z,5.67
2023-08-06T11:55:50.648Z,6.90
2023-08-06T11:58:22.933Z,5.40
2023-08-06T12:00:58.446Z,5.70
2023-08-06T12:03:38.138Z,6.13
2023-08-06T12:06:09.846Z,6.07
2023-08-06T12:08:53.690Z,5.77
2023-08-06T12:11:26.886Z,7.50
2023-08-06T12:14:04.167Z,12.60
2023-08-06T12:16:35.816Z,9.00
2023-08-06T12:19:15.694Z,6.83
2023-08-06T12:21:48.521Z,6.03
2023-08-06T12:24:21.110Z,6.20
2023-08-06T12:26:55.780Z,4.88
2023-08-06T12:29:27.632Z,5.20
2023-08-06T12:32:01.738Z,5.07
2023-08-06T12:34:51.971Z,4.87
2023-08-06T12:37:31.962Z,5.03
2023-08-06T12:40:33.442Z,4.40
2023-08-06T12:43:10.809Z,4.88
2023-08-06T12:45:57.658Z,5.10
2023-08-06T12:48:29.450Z,5.25
2023-08-06T12:51:03.014Z,4.90
2023-08-06T12:53:34.621Z,4.30
2023-08-06T12:56:06.792Z,4.45
2023-08-06T12:58:41.408Z,4.30
2023-08-06T13:01:13.299Z,4.03
2023-08-06T13:03:45.638Z,3.60
2023-08-06T13:06:19.381Z,4.10
2023-08-06T13:08:52.093Z,4.40
2023-08-06T13:11:25.089Z,4.05
2023-08-06T13:13:58.945Z,4.00
2023-08-06T13:16:31.672Z,4.20
2023-08-06T13:19:03.482Z,4.47
2023-08-06T13:21:40.935Z,3.95
2023-08-06T13:24:13.046Z,3.90
2023-08-06T13:26:47.601Z,3.53
2023-08-06T13:29:19.337Z,3.70
2023-08-06T13:31:54.247Z,3.53
2023-08-06T13:34:27.411Z,3.45
2023-08-06T13:37:02.864Z,3.70
2023-08-06T13:39:34.617Z,3.35
2023-08-06T13:42:07.481Z,3.67
2023-08-06T13:44:39.684Z,4.15
2023-08-06T13:47:11.535Z,3.47
2023-08-06T13:49:43.848Z,3.67
2023-08-06T13:52:22.289Z,3.88
2023-08-06T13:54:54.577Z,3.78
2023-08-06T13:57:26.374Z,3.53
2023-08-06T13:59:58.037Z,4.07
2023-08-06T14:02:29.825Z,3.78
2023-08-06T14:05:02.464Z,4.38
2023-08-06T14:07:36.160Z,3.83
2023-08-06T14:10:08.014Z,3.80
2023-08-06T14:12:39.621Z,3.15
2023-08-06T14:15:12.041Z,3.50
2023-08-06T14:17:46.465Z,3.97
2023-08-06T14:20:18.255Z,3.80
2023-08-06T14:22:51.871Z,3.80
2023-08-06T14:25:23.951Z,3.47
2023-08-06T14:27:55.747Z,4.10
2023-08-06T14:30:27.650Z,4.30
2023-08-06T14:33:03.863Z,4.28
2023-08-06T14:35:41.239Z,4.10
2023-08-06T14:38:15.816Z,3.85
2023-08-06T14:40:48.667Z,4.05
2023-08-06T14:43:20.223Z,4.15
2023-08-06T14:45:51.927Z,3.53
2023-08-06T14:48:23.763Z,3.40
2023-08-06T14:50:55.624Z,3.92
2023-08-06T14:53:29.206Z,3.38
2023-08-06T14:56:01.048Z,3.78
2023-08-06T14:58:32.774Z,3.50
2023-08-06T15:01:04.786Z,3.85
2023-08-06T15:03:36.443Z,3.58
2023-08-06T15:06:08.181Z,4.50
2023-08-06T15:08:41.812Z,4.15
2023-08-06T15:11:15.081Z,5.20
2023-08-06T15:13:46.903Z,4.88
2023-08-06T15:16:18.589Z,5.50
2023-08-06T15:18:51.035Z,4.45
2023-08-06T15:21:22.698Z,3.78
2023-08-06T15:23:56.169Z,3.78
2023-08-06T15:26:28.487Z,3.50
2023-08-06T15:29:00.508Z,3.30
2023-08-06T15:31:44.152Z,3.40
2023-08-06T15:34:15.794Z,3.58
2023-08-06T15:36:47.364Z,3.33
2023-08-06T15:39:20.682Z,3.13
2023-08-06T15:41:52.143Z,3.40
2023-08-06T15:44:24.529Z,3.28
2023-08-06T15:46:56.887Z,3.20
2023-08-06T15:49:28.831Z,3.50
2023-08-06T15:52:00.444Z,3.50
2023-08-06T15:54:33.961Z,3.65
2023-08-06T15:57:06.345Z,3.60
2023-08-06T15:59:38.034Z,4.38
2023-08-06T16:02:12.261Z,3.35
2023-08-06T16:04:44.886Z,3.03
2023-08-06T16:07:16.583Z,3.20
2023-08-06T16:09:50.922Z,3.10
2023-08-06T16:12:22.862Z,3.03
2023-08-06T16:14:55.111Z,3.58
2023-08-06T16:17:27.084Z,3.25
2023-08-06T16:19:58.724Z,3.60
2023-08-06T16:22:31.316Z,3.20
2023-08-06T16:25:05.209Z,3.15
2023-08-06T16:27:36.921Z,3.25
2023-08-06T16:30:09.630Z,3.33
2023-08-06T16:32:42.104Z,3.28
2023-08-06T16:35:14.768Z,2.75
2023-08-06T16:37:49.270Z,3.17
2023-08-06T16:40:23.106Z,3.28
2023-08-06T16:50:18.777Z,2.95
2023-08-06T16:52:52.461Z,3.67
2023-08-06T16:58:49.026Z,3.50
2023-08-06T17:01:20.634Z,3.15
2023-08-06T17:03:56.958Z,3.28
2023-08-06T17:06:37.431Z,3.65
2023-08-06T17:09:08.740Z,3.00
2023-08-06T17:11:42.299Z,3.25
2023-08-06T17:14:14.673Z,3.35
2023-08-06T17:16:47.186Z,3.25
2023-08-06T17:19:18.984Z,3.15
2023-08-06T17:21:50.750Z,3.22
2023-08-06T17:24:23.455Z,3.60
2023-08-06T17:27:00.855Z,3.25
2023-08-06T17:29:33.616Z,3.30
2023-08-06T17:32:05.699Z,3.60
2023-08-06T17:34:38.689Z,3.72
2023-08-06T17:37:10.601Z,3.63
2023-08-06T17:39:42.509Z,3.08
2023-08-06T17:42:16.143Z,3.53
2023-08-06T17:44:46.646Z,3.53
2023-08-06T17:47:30.762Z,3.42
2023-08-06T17:50:06.188Z,3.30
2023-08-06T17:52:42.130Z,3.42
2023-08-06T17:55:12.789Z,2.90
2023-08-06T17:57:45.134Z,3.30
2023-08-06T18:00:16.539Z,3.13
2023-08-06T18:02:47.122Z,3.08
2023-08-06T18:05:20.194Z,3.33
2023-08-06T18:07:53.461Z,3.20
2023-08-06T18:10:24.325Z,4.18
2023-08-06T18:12:58.183Z,3.40
2023-08-06T18:15:31.098Z,3.58
2023-08-06T18:18:01.621Z,3.58
2023-08-06T18:20:32.356Z,3.67
2023-08-06T18:23:04.283Z,3.53
2023-08-06T18:25:35.370Z,4.70
2023-08-06T18:28:11.784Z,5.13
2023-08-06T18:30:44.065Z,4.75
2023-08-06T18:33:14.578Z,4.50
2023-08-06T18:35:45.532Z,3.90
2023-08-06T18:38:18.657Z,4.38
2023-08-06T18:40:49.363Z,4.20
2023-08-06T18:43:24.374Z,3.60
2023-08-06T18:45:59.279Z,3.63
2023-08-06T18:48:30.105Z,3.35
2023-08-06T18:51:01.886Z,3.10
2023-08-06T18:53:32.460Z,2.80
2023-08-06T18:56:02.942Z,2.83
2023-08-06T18:58:37.351Z,3.63
2023-08-06T19:01:07.883Z,3.08
2023-08-06T19:03:38.510Z,3.45
2023-08-06T19:06:09.171Z,3.10
2023-08-06T19:08:39.799Z,3.10
2023-08-06T19:11:10.264Z,3.33
2023-08-06T19:13:42.413Z,3.40
2023-08-06T19:16:12.890Z,3.08
2023-08-06T19:18:43.357Z,2.95
2023-08-06T19:21:13.866Z,3.28
2023-08-06T19:23:44.379Z,3.08
2023-08-06T19:26:14.952Z,3.22
2023-08-06T19:28:47.140Z,3.30
2023-08-06T19:31:17.679Z,3.33
2023-08-06T19:33:48.642Z,3.47
2023-08-06T19:36:19.071Z,3.50
2023-08-06T19:38:49.464Z,3.92
2023-08-06T19:41:20.730Z,3.40
2023-08-06T19:43:53.704Z,3.30
2023-08-06T19:46:24.183Z,3.92
2023-08-06T19:48:54.753Z,5.40
2023-08-06T19:51:27.232Z,4.30
2023-08-06T19:53:57.679Z,3.30
2023-08-06T19:56:30.762Z,3.45
2023-08-06T19:59:02.810Z,3.28
2023-08-06T20:01:33.499Z,3.58
2023-08-06T20:04:04.321Z,3.92
2023-08-06T20:06:34.773Z,3.35
2023-08-06T20:09:05.174Z,3.85
2023-08-06T20:11:35.579Z,3.38
2023-08-06T20:14:07.619Z,3.65
2023-08-06T20:16:38.108Z,4.03
2023-08-06T20:19:08.761Z,3.85
2023-08-06T20:21:39.197Z,3.55
2023-08-06T20:24:09.777Z,3.75
2023-08-06T20:26:40.195Z,3.25
2023-08-06T20:29:12.302Z,3.95
2023-08-06T20:31:43.444Z,3.40
2023-08-06T20:34:13.984Z,3.47
2023-08-06T20:36:44.553Z,3.80
2023-08-06T20:39:15.125Z,3.20
2023-08-06T20:41:45.633Z,3.22
2023-08-06T20:44:17.738Z,3.28
2023-08-06T20:46:48.423Z,2.87
2023-08-06T20:49:18.860Z,3.30
2023-08-06T20:51:49.386Z,3.50
2023-08-06T20:54:19.900Z,3.03
2023-08-06T20:56:50.329Z,3.07
2023-08-06T20:59:22.422Z,3.23
2023-08-06T21:01:53.268Z,3.37
2023-08-06T21:04:24.108Z,3.20
2023-08-06T21:06:54.614Z,3.10
2023-08-06T21:09:25.051Z,3.23
2023-08-06T21:11:55.657Z,3.17
2023-08-06T21:14:28.146Z,2.80
2023-08-06T21:16:58.732Z,3.20
2023-08-06T21:19:29.284Z,2.90
2023-08-06T21:21:59.868Z,3.13
2023-08-06T21:24:30.430Z,3.47
2023-08-06T21:27:01.760Z,3.00
2023-08-06T21:29:34.723Z,3.20
2023-08-06T21:32:05.171Z,3.30
2023-08-06T21:34:35.758Z,3.33
2023-08-06T21:37:06.307Z,3.30
2023-08-06T21:39:37.072Z,3.13
2023-08-06T21:42:07.977Z,3.03
2023-08-06T21:44:40.057Z,3.60
2023-08-06T21:47:10.650Z,3.07
2023-08-06T21:49:41.135Z,3.77
2023-08-06T21:52:12.133Z,3.47
2023-08-06T21:54:42.582Z,4.47
2023-08-06T21:57:13.131Z,5.17
2023-08-06T21:59:45.360Z,7.73
2023-08-06T22:02:15.924Z,7.23
2023-08-06T22:04:46.426Z,6.87
2023-08-06T22:07:16.991Z,10.13
2023-08-06T22:09:47.716Z,9.70
2023-08-06T22:12:18.222Z,9.13
2023-08-06T22:14:50.474Z,10.50
2023-08-06T22:17:21.081Z,12.30
2023-08-06T22:19:51.605Z,8.43
2023-08-06T22:22:22.655Z,7.97
2023-08-06T22:24:53.178Z,3.93
2023-08-06T22:27:24.045Z,3.43
2023-08-06T22:29:56.222Z,3.17
2023-08-06T22:32:26.778Z,3.27
2023-08-06T22:34:57.264Z,3.33
2023-08-06T22:37:28.299Z,3.47
2023-08-06T22:40:01.015Z,2.93
2023-08-06T22:42:31.576Z,3.40
2023-08-06T22:45:04.039Z,3.53
2023-08-06T22:47:34.615Z,3.93
2023-08-06T22:50:05.512Z,3.63
2023-08-06T22:52:36.059Z,2.93
2023-08-06T22:55:18.962Z,3.67
2023-08-06T22:57:54.446Z,3.53
2023-08-06T23:00:26.642Z,3.27
2023-08-06T23:03:08.678Z,3.43
2023-08-06T23:05:41.919Z,3.77
2023-08-06T23:08:12.574Z,3.27
2023-08-06T23:10:43.147Z,3.33
2023-08-06T23:13:13.729Z,3.07
2023-08-06T23:15:46.008Z,3.83
2023-08-06T23:18:16.584Z,3.87
2023-08-06T23:20:48.140Z,3.63
2023-08-06T23:23:18.713Z,3.63
2023-08-06T23:25:49.289Z,3.43
2023-08-06T23:28:19.911Z,3.40
2023-08-06T23:30:54.003Z,3.83
2023-08-06T23:33:24.482Z,3.30
2023-08-06T23:35:54.960Z,3.93
2023-08-06T23:38:25.513Z,3.17
2023-08-06T23:40:56.099Z,3.50
2023-08-06T23:43:26.657Z,3.33
2023-08-06T23:46:00.878Z,3.53
2023-08-06T23:48:31.671Z,3.77
2023-08-06T23:51:02.177Z,3.70
2023-08-06T23:53:32.723Z,3.60
2023-08-06T23:56:03.191Z,3.90
2023-08-06T23:58:33.726Z,3.87
